createdAt,value
2022-08-19T00:01:58.008Z,43.08
2022-08-19T00:04:03.826Z,43.03
2022-08-19T00:06:05.707Z,42.90
2022-08-19T00:08:07.261Z,42.73
2022-08-19T00:10:10.081Z,42.78
2022-08-19T00:12:12.300Z,42.23
2022-08-19T00:14:17.684Z,42.21
2022-08-19T00:16:20.004Z,42.48
2022-08-19T00:18:28.503Z,42.54
2022-08-19T00:20:30.046Z,42.29
2022-08-19T00:22:31.865Z,42.43
2022-08-19T00:24:33.485Z,42.37
2022-08-19T00:26:36.957Z,42.34
2022-08-19T00:28:38.611Z,42.28
2022-08-19T00:30:41.550Z,42.06
2022-08-19T00:32:43.406Z,42.52
2022-08-19T00:34:44.990Z,42.47
2022-08-19T00:36:46.887Z,42.22
2022-08-19T00:38:48.521Z,42.22
2022-08-19T00:40:50.316Z,42.58
2022-08-19T00:42:52.005Z,42.77
2022-08-19T00:44:53.748Z,42.85
2022-08-19T00:46:58.905Z,43.08
2022-08-19T00:49:03.229Z,43.23
2022-08-19T00:51:06.465Z,43.60
2022-08-19T00:53:08.466Z,43.53
2022-08-19T00:55:10.942Z,43.43
2022-08-19T00:57:17.183Z,43.08
2022-08-19T00:59:58.798Z,43.02
2022-08-19T01:01:44.227Z,43.39
2022-08-19T01:03:56.788Z,43.09
2022-08-19T01:06:00.573Z,42.83
2022-08-19T01:08:05.498Z,43.67
2022-08-19T01:10:10.435Z,43.19
2022-08-19T01:12:12.225Z,43.25
2022-08-19T01:14:14.917Z,43.38
2022-08-19T01:16:18.548Z,42.54
2022-08-19T01:18:22.141Z,42.82
2022-08-19T01:20:25.286Z,43.11
2022-08-19T01:22:33.838Z,43.08
2022-08-19T01:24:36.072Z,43.68
2022-08-19T01:26:48.707Z,43.79
2022-08-19T01:28:53.986Z,44.01
2022-08-19T01:30:58.917Z,44.11
2022-08-19T01:33:01.559Z,44.12
2022-08-19T01:35:05.160Z,44.24
2022-08-19T01:37:11.089Z,44.56
2022-08-19T01:39:16.762Z,44.97
2022-08-19T01:41:19.089Z,45.07
2022-08-19T01:43:20.835Z,45.44
2022-08-19T01:45:25.414Z,45.77
2022-08-19T01:47:28.060Z,45.20
2022-08-19T01:49:29.642Z,45.48
2022-08-19T01:51:31.342Z,45.24
2022-08-19T01:53:42.507Z,44.82
2022-08-19T01:55:45.504Z,44.96
2022-08-19T01:57:50.951Z,44.64
2022-08-19T01:59:52.698Z,44.29
2022-08-19T02:01:54.318Z,44.36
2022-08-19T02:03:56.858Z,44.75
2022-08-19T02:06:00.325Z,44.99
2022-08-19T02:08:01.911Z,44.65
2022-08-19T02:10:06.626Z,45.28
2022-08-19T02:12:15.173Z,45.09
2022-08-19T02:14:16.850Z,44.71
2022-08-19T02:16:19.040Z,44.95
2022-08-19T02:18:21.050Z,44.98
2022-08-19T02:20:29.626Z,45.23
2022-08-19T02:22:31.227Z,45.40
2022-08-19T02:24:32.795Z,45.86
2022-08-19T02:26:34.684Z,45.96
2022-08-19T02:28:41.292Z,46.18
2022-08-19T02:30:43.294Z,46.36
2022-08-19T02:32:45.039Z,46.09
2022-08-19T02:34:46.899Z,46.67
2022-08-19T02:36:51.645Z,45.96
2022-08-19T02:38:55.083Z,46.73
2022-08-19T02:40:59.703Z,46.16
2022-08-19T02:43:01.685Z,46.96
2022-08-19T02:45:05.747Z,46.87
2022-08-19T02:47:07.281Z,46.79
2022-08-19T02:49:09.019Z,46.71
2022-08-19T02:51:17.046Z,47.57
2022-08-19T02:53:18.612Z,47.20
2022-08-19T02:55:20.243Z,47.16
2022-08-19T02:57:21.903Z,46.89
2022-08-19T02:59:23.474Z,47.78
2022-08-19T03:01:29.451Z,47.56
2022-08-19T03:03:31.146Z,47.79
2022-08-19T03:05:48.142Z,47.65
2022-08-19T03:07:54.345Z,47.04
2022-08-19T03:09:55.907Z,47.21
2022-08-19T03:11:57.465Z,46.69
2022-08-19T03:14:01.453Z,46.87
2022-08-19T03:16:05.908Z,46.36
2022-08-19T03:18:08.980Z,46.55
2022-08-19T03:20:11.705Z,46.00
2022-08-19T03:22:13.311Z,46.35
2022-08-19T03:24:15.730Z,46.19
2022-08-19T03:26:17.783Z,46.42
2022-08-19T03:28:19.566Z,46.14
2022-08-19T03:30:23.348Z,46.24
2022-08-19T03:32:32.476Z,45.88
2022-08-19T03:34:38.025Z,46.42
2022-08-19T03:36:39.868Z,46.56
2022-08-19T03:38:45.438Z,46.38
2022-08-19T03:40:47.021Z,46.02
2022-08-19T03:42:49.422Z,46.48
2022-08-19T03:44:51.239Z,45.68
2022-08-19T03:46:57.584Z,46.31
2022-08-19T03:49:01.586Z,45.70
2022-08-19T03:51:06.580Z,46.27
2022-08-19T03:53:08.177Z,46.31
2022-08-19T03:55:10.212Z,46.11
2022-08-19T03:57:11.782Z,46.63
2022-08-19T03:59:17.460Z,46.94
2022-08-19T04:01:22.649Z,47.04
2022-08-19T04:03:38.690Z,47.05
2022-08-19T04:05:40.338Z,47.26
2022-08-19T04:07:48.234Z,47.88
2022-08-19T04:09:51.568Z,47.68
2022-08-19T04:11:55.683Z,47.56
2022-08-19T04:13:57.255Z,47.63
2022-08-19T04:15:58.910Z,47.90
2022-08-19T04:18:00.616Z,47.49
2022-08-19T04:20:02.313Z,48.03
2022-08-19T04:22:08.716Z,48.25
2022-08-19T04:24:12.207Z,48.26
2022-08-19T04:26:14.507Z,48.08
2022-08-19T04:28:16.131Z,48.66
2022-08-19T04:30:17.878Z,48.58
2022-08-19T04:32:19.453Z,47.98
2022-08-19T04:34:24.460Z,47.77
2022-08-19T04:36:29.152Z,48.09
2022-08-19T04:38:30.721Z,47.92
2022-08-19T04:40:33.761Z,48.17
2022-08-19T04:42:35.344Z,47.71
2022-08-19T04:44:39.006Z,48.18
2022-08-19T04:46:51.330Z,48.13
2022-08-19T04:48:53.286Z,48.24
2022-08-19T04:50:57.152Z,47.87
2022-08-19T04:52:58.747Z,47.53
2022-08-19T04:55:00.829Z,48.04
2022-08-19T04:57:08.605Z,47.65
2022-08-19T04:59:11.082Z,46.93
2022-08-19T05:01:14.231Z,47.07
2022-08-19T05:03:15.856Z,47.00
2022-08-19T05:05:17.610Z,46.14
2022-08-19T05:07:19.247Z,46.10
2022-08-19T05:09:20.814Z,46.37
2022-08-19T05:11:26.673Z,46.07
2022-08-19T05:13:29.845Z,46.31
2022-08-19T05:15:32.177Z,46.45
2022-08-19T05:17:38.297Z,46.60
2022-08-19T05:19:40.413Z,46.19
2022-08-19T05:21:42.990Z,46.01
2022-08-19T05:23:44.669Z,46.51
2022-08-19T05:25:46.265Z,46.74
2022-08-19T05:27:48.275Z,46.34
2022-08-19T05:29:51.365Z,46.78
2022-08-19T05:31:54.558Z,46.88
2022-08-19T05:33:56.167Z,46.79
2022-08-19T05:35:57.717Z,46.96
2022-08-19T05:37:59.469Z,46.59
2022-08-19T05:40:01.185Z,46.22
2022-08-19T05:42:05.704Z,46.36
2022-08-19T05:44:07.349Z,45.71
2022-08-19T05:46:18.687Z,45.96
2022-08-19T05:48:29.275Z,45.45
2022-08-19T05:50:31.027Z,45.75
2022-08-19T05:52:32.691Z,45.65
2022-08-19T05:54:37.599Z,45.64
2022-08-19T05:56:39.307Z,45.08
2022-08-19T05:58:40.995Z,45.55
2022-08-19T06:00:44.682Z,45.08
2022-08-19T06:02:47.790Z,44.75
2022-08-19T06:04:49.634Z,44.55
2022-08-19T06:06:55.071Z,45.04
2022-08-19T06:08:56.972Z,44.76
2022-08-19T06:10:58.605Z,45.00
2022-08-19T06:13:00.204Z,44.81
2022-08-19T06:15:03.637Z,45.50
2022-08-19T06:17:07.313Z,44.72
2022-08-19T06:19:12.774Z,45.22
2022-08-19T06:21:14.395Z,44.99
2022-08-19T06:23:16.270Z,44.79
2022-08-19T06:25:19.237Z,44.95
2022-08-19T06:27:21.051Z,44.71
2022-08-19T06:29:25.545Z,44.54
2022-08-19T06:31:29.036Z,44.89
2022-08-19T06:33:30.843Z,44.72
2022-08-19T06:35:39.927Z,44.59
2022-08-19T06:37:43.827Z,44.76
2022-08-19T06:39:45.984Z,44.28
2022-08-19T06:41:53.357Z,44.30
2022-08-19T06:43:57.792Z,43.65
2022-08-19T06:45:59.683Z,43.84
2022-08-19T06:48:01.544Z,43.99
2022-08-19T06:50:04.113Z,43.34
2022-08-19T06:52:09.269Z,43.59
2022-08-19T06:54:19.509Z,43.93
2022-08-19T06:56:23.782Z,44.06
2022-08-19T06:58:25.464Z,43.50
2022-08-19T07:00:28.477Z,43.28
2022-08-19T07:02:30.217Z,43.27
2022-08-19T07:04:33.115Z,43.66
2022-08-19T07:06:44.717Z,43.27
2022-08-19T07:08:48.746Z,43.40
2022-08-19T07:10:50.377Z,43.05
2022-08-19T07:12:52.180Z,43.30
2022-08-19T07:14:53.985Z,43.09
2022-08-19T07:16:57.743Z,43.07
2022-08-19T07:18:59.746Z,43.13
2022-08-19T07:21:16.798Z,42.74
2022-08-19T07:23:18.550Z,43.14
2022-08-19T07:25:21.603Z,43.09
2022-08-19T07:27:34.202Z,43.00
2022-08-19T07:29:37.004Z,42.86
2022-08-19T07:31:40.216Z,43.17
2022-08-19T07:33:46.415Z,43.32
2022-08-19T07:35:49.254Z,43.17
2022-08-19T07:37:50.965Z,43.43
2022-08-19T07:39:52.667Z,42.94
2022-08-19T07:41:57.248Z,43.08
2022-08-19T07:44:00.405Z,43.40
2022-08-19T07:46:02.109Z,43.04
2022-08-19T07:48:04.931Z,43.15
2022-08-19T07:50:11.478Z,42.83
2022-08-19T07:52:13.068Z,43.16
2022-08-19T07:54:14.839Z,42.77
2022-08-19T07:56:16.884Z,42.89
2022-08-19T07:58:22.705Z,43.19
2022-08-19T08:00:24.916Z,43.13
2022-08-19T08:02:26.831Z,43.02
2022-08-19T08:04:29.637Z,43.17
2022-08-19T08:06:31.512Z,42.92
2022-08-19T08:08:33.226Z,42.72
2022-08-19T08:10:35.132Z,42.70
2022-08-19T08:12:40.030Z,42.60
2022-08-19T08:14:47.248Z,42.89
2022-08-19T08:16:50.252Z,42.77
2022-08-19T08:18:53.302Z,42.83
2022-08-19T08:20:55.915Z,42.54
2022-08-19T08:22:57.546Z,42.36
2022-08-19T08:25:02.747Z,42.57
2022-08-19T08:27:04.705Z,42.60
2022-08-19T08:29:13.377Z,42.24
2022-08-19T08:31:16.419Z,42.26
2022-08-19T08:33:30.001Z,42.62
2022-08-19T08:35:37.145Z,42.74
2022-08-19T08:37:39.509Z,42.56
2022-08-19T08:39:41.200Z,42.34
2022-08-19T08:41:51.735Z,42.26
2022-08-19T08:43:53.510Z,42.37
2022-08-19T08:46:00.813Z,42.25
2022-08-19T08:48:23.904Z,42.54
2022-08-19T08:50:33.468Z,42.22
2022-08-19T08:52:39.991Z,42.04
2022-08-19T08:54:55.550Z,42.34
2022-08-19T08:56:57.830Z,42.03
2022-08-19T08:59:05.339Z,42.46
2022-08-19T09:01:06.993Z,42.54
2022-08-19T09:03:17.436Z,42.47
2022-08-19T09:05:22.267Z,41.99
2022-08-19T09:07:46.881Z,42.38
2022-08-19T09:09:51.970Z,42.00
2022-08-19T09:12:00.621Z,41.87
2022-08-19T09:14:35.071Z,42.28
2022-08-19T09:16:37.610Z,42.33
2022-08-19T09:18:46.916Z,41.94
2022-08-19T09:20:48.718Z,42.43
2022-08-19T09:22:50.707Z,42.61
2022-08-19T09:24:52.933Z,42.06
2022-08-19T09:26:54.511Z,42.06
2022-08-19T09:28:56.277Z,41.71
2022-08-19T09:30:59.878Z,41.79
2022-08-19T09:33:02.024Z,41.83
2022-08-19T09:35:08.732Z,42.14
2022-08-19T09:37:10.990Z,41.47
2022-08-19T09:39:16.284Z,40.93
2022-08-19T09:41:21.824Z,41.09
2022-08-19T09:43:33.276Z,41.56
2022-08-19T09:45:45.468Z,41.06
2022-08-19T09:47:47.268Z,41.28
2022-08-19T09:49:48.976Z,40.89
2022-08-19T09:51:52.590Z,41.09
2022-08-19T09:53:55.400Z,41.47
2022-08-19T09:55:57.475Z,40.70
2022-08-19T09:58:00.515Z,41.11
2022-08-19T10:00:03.259Z,41.17
2022-08-19T10:02:10.921Z,41.13
2022-08-19T10:04:19.718Z,41.06
2022-08-19T10:06:45.518Z,41.38
2022-08-19T10:08:50.185Z,41.41
2022-08-19T10:10:52.764Z,41.44
2022-08-19T10:12:54.535Z,41.25
2022-08-19T10:14:56.112Z,40.97
2022-08-19T10:16:59.142Z,40.95
2022-08-19T10:19:01.044Z,40.86
2022-08-19T10:21:11.649Z,40.46
2022-08-19T10:23:14.577Z,40.32
2022-08-19T10:25:17.716Z,40.60
2022-08-19T10:27:19.382Z,40.39
2022-08-19T10:29:33.117Z,40.25
2022-08-19T10:32:00.624Z,40.44
2022-08-19T10:33:58.863Z,38.97
2022-08-19T10:36:06.457Z,40.32
2022-08-19T10:38:10.208Z,40.51
2022-08-19T10:40:12.724Z,40.08
2022-08-19T10:42:15.797Z,39.14
2022-08-19T10:44:17.412Z,39.78
2022-08-19T10:46:19.476Z,39.24
2022-08-19T10:48:21.103Z,37.52
2022-08-19T10:50:28.826Z,39.01
2022-08-19T10:52:32.553Z,39.11
2022-08-19T10:54:34.633Z,39.32
2022-08-19T10:56:36.317Z,39.22
2022-08-19T10:58:39.328Z,39.06
2022-08-19T11:00:41.713Z,39.18
2022-08-19T11:02:43.762Z,38.65
2022-08-19T11:04:45.377Z,39.03
2022-08-19T11:06:49.709Z,39.03
2022-08-19T11:08:51.578Z,38.93
2022-08-19T11:10:54.572Z,38.74
2022-08-19T11:12:58.374Z,38.81
2022-08-19T11:15:06.865Z,39.31
2022-08-19T11:17:09.029Z,39.22
2022-08-19T11:19:12.886Z,39.15
2022-08-19T11:21:17.408Z,39.27
2022-08-19T11:23:21.639Z,39.04
2022-08-19T11:25:23.286Z,38.81
2022-08-19T11:27:25.065Z,38.60
2022-08-19T11:29:26.759Z,38.11
2022-08-19T11:31:32.202Z,37.91
2022-08-19T11:33:33.868Z,37.34
2022-08-19T11:35:40.367Z,37.08
2022-08-19T11:37:42.303Z,37.12
2022-08-19T11:39:44.260Z,37.05
2022-08-19T11:41:55.877Z,37.45
2022-08-19T11:43:58.190Z,37.53
2022-08-19T11:46:01.021Z,36.17
2022-08-19T11:48:04.225Z,35.63
2022-08-19T11:50:06.442Z,34.32
2022-08-19T11:52:08.096Z,35.03
2022-08-19T11:54:10.681Z,35.54
2022-08-19T11:56:15.726Z,36.27
2022-08-19T11:58:19.418Z,35.76
2022-08-19T12:00:21.127Z,36.17
2022-08-19T12:02:22.782Z,36.47
2022-08-19T12:04:29.860Z,37.09
2022-08-19T12:06:33.891Z,36.76
2022-08-19T12:08:35.747Z,36.11
2022-08-19T12:10:37.484Z,35.75
2022-08-19T12:12:39.212Z,35.70
2022-08-19T12:14:42.292Z,35.98
2022-08-19T12:16:51.108Z,36.10
2022-08-19T12:18:55.479Z,36.76
2022-08-19T12:20:58.928Z,36.42
2022-08-19T12:23:00.646Z,36.63
2022-08-19T12:25:02.395Z,35.66
2022-08-19T12:27:04.430Z,36.06
2022-08-19T12:29:06.546Z,35.83
2022-08-19T12:31:08.889Z,35.49
2022-08-19T12:33:10.515Z,34.68
2022-08-19T12:35:12.156Z,33.52
2022-08-19T12:37:15.153Z,32.81
2022-08-19T12:39:16.842Z,31.56
2022-08-19T12:41:19.592Z,29.30
2022-08-19T12:43:21.285Z,30.41
2022-08-19T12:45:22.962Z,31.06
2022-08-19T12:47:24.699Z,30.73
2022-08-19T12:49:52.465Z,31.94
2022-08-19T12:51:50.235Z,31.98
2022-08-19T12:53:53.289Z,31.55
2022-08-19T12:55:56.790Z,31.79
2022-08-19T12:57:58.696Z,32.76
2022-08-19T13:00:04.842Z,33.39
2022-08-19T13:02:08.162Z,33.88
2022-08-19T13:04:09.777Z,33.98
2022-08-19T13:06:11.643Z,33.92
2022-08-19T13:08:13.222Z,33.76
2022-08-19T13:10:20.399Z,33.55
2022-08-19T13:12:22.031Z,33.94
2022-08-19T13:14:26.987Z,33.85
2022-08-19T13:16:29.432Z,33.10
2022-08-19T13:18:31.090Z,32.91
2022-08-19T13:20:33.032Z,33.33
2022-08-19T13:22:34.799Z,33.41
2022-08-19T13:24:36.399Z,33.18
2022-08-19T13:26:39.352Z,33.55
2022-08-19T13:28:42.213Z,33.79
2022-08-19T13:30:48.357Z,33.19
2022-08-19T13:32:50.039Z,33.15
2022-08-19T13:34:51.662Z,33.58
2022-08-19T13:36:54.134Z,33.72
2022-08-19T13:38:58.384Z,32.67
2022-08-19T13:41:09.911Z,31.82
2022-08-19T13:43:22.550Z,30.82
2022-08-19T13:45:25.912Z,29.90
2022-08-19T13:47:27.573Z,29.71
2022-08-19T13:49:29.331Z,29.45
2022-08-19T13:51:30.945Z,29.56
2022-08-19T13:53:32.522Z,30.81
2022-08-19T13:55:34.995Z,29.80
2022-08-19T13:57:37.347Z,29.40
2022-08-19T13:59:40.568Z,30.29
2022-08-19T14:01:42.378Z,29.58
2022-08-19T14:03:43.962Z,29.48
2022-08-19T14:05:45.716Z,29.30
2022-08-19T14:07:47.789Z,28.37
2022-08-19T14:09:49.477Z,28.64
2022-08-19T14:11:51.154Z,27.90
2022-08-19T14:13:52.834Z,28.03
2022-08-19T14:15:55.848Z,28.91
2022-08-19T14:17:57.481Z,28.82
2022-08-19T14:20:00.087Z,29.35
2022-08-19T14:22:11.948Z,29.79
2022-08-19T14:24:18.340Z,29.82
2022-08-19T14:26:21.917Z,29.28
2022-08-19T14:28:23.631Z,30.28
2022-08-19T14:30:33.874Z,30.88
2022-08-19T14:32:37.277Z,30.25
2022-08-19T14:34:38.966Z,31.09
2022-08-19T14:36:40.632Z,30.94
2022-08-19T14:38:43.031Z,31.03
2022-08-19T14:40:45.233Z,30.41
2022-08-19T14:42:46.975Z,31.27
2022-08-19T14:44:48.616Z,31.28
2022-08-19T14:46:52.274Z,30.95
2022-08-19T14:48:59.994Z,31.46
2022-08-19T14:51:02.102Z,31.87
2022-08-19T14:53:09.115Z,32.13
2022-08-19T14:55:15.013Z,32.06
2022-08-19T14:57:16.921Z,32.08
2022-08-19T14:59:18.966Z,32.01
2022-08-19T15:01:22.415Z,32.16
2022-08-19T15:03:24.047Z,31.93
2022-08-19T15:05:27.013Z,31.55
2022-08-19T15:07:28.600Z,31.83
2022-08-19T15:09:31.192Z,31.63
2022-08-19T15:11:32.895Z,32.35
2022-08-19T15:13:34.508Z,29.16
2022-08-19T15:15:36.493Z,31.44
2022-08-19T15:17:54.523Z,30.81
2022-08-19T15:19:56.153Z,31.93
2022-08-19T15:21:59.616Z,31.17
2022-08-19T15:24:01.386Z,31.82
2022-08-19T15:26:02.991Z,31.84
2022-08-19T15:28:04.695Z,31.54
2022-08-19T15:30:07.878Z,31.50
2022-08-19T15:32:09.522Z,31.37
2022-08-19T15:34:11.511Z,31.63
2022-08-19T15:36:13.047Z,31.93
2022-08-19T15:38:21.840Z,31.79
2022-08-19T15:40:28.005Z,31.85
2022-08-19T15:42:30.432Z,31.88
2022-08-19T15:44:32.563Z,31.96
2022-08-19T15:46:35.904Z,31.86
2022-08-19T15:48:37.653Z,31.58
2022-08-19T15:50:39.509Z,31.67
2022-08-19T15:52:49.569Z,31.57
2022-08-19T15:54:53.030Z,31.24
2022-08-19T15:56:57.996Z,31.23
2022-08-19T15:59:00.029Z,31.75
2022-08-19T16:01:05.246Z,31.62
2022-08-19T16:03:15.064Z,31.86
2022-08-19T16:05:18.912Z,31.37
2022-08-19T16:07:23.333Z,29.67
2022-08-19T16:09:27.882Z,31.48
2022-08-19T16:11:33.238Z,31.44
2022-08-19T16:13:34.833Z,31.44
2022-08-19T16:15:36.895Z,31.30
2022-08-19T16:17:38.459Z,31.22
2022-08-19T16:19:40.098Z,31.37
2022-08-19T16:21:42.774Z,31.03
2022-08-19T16:23:45.192Z,30.76
2022-08-19T16:25:46.830Z,31.20
2022-08-19T16:27:54.306Z,30.86
2022-08-19T16:30:10.543Z,31.04
2022-08-19T16:32:12.176Z,30.77
2022-08-19T16:34:14.846Z,30.89
2022-08-19T16:36:16.765Z,30.93
2022-08-19T16:38:19.781Z,30.52
2022-08-19T16:40:22.601Z,30.94
2022-08-19T16:42:24.344Z,31.01
2022-08-19T16:44:27.469Z,31.17
2022-08-19T16:46:31.658Z,31.24
2022-08-19T16:48:35.945Z,31.09
2022-08-19T16:50:49.194Z,31.12
2022-08-19T16:52:51.368Z,31.28
2022-08-19T16:54:53.322Z,31.27
2022-08-19T16:56:54.914Z,31.23
2022-08-19T16:58:56.661Z,31.31
2022-08-19T17:01:04.143Z,31.37
2022-08-19T17:03:06.971Z,31.13
2022-08-19T17:05:09.615Z,31.46
2022-08-19T17:07:11.221Z,31.48
2022-08-19T17:09:12.961Z,31.67
2022-08-19T17:11:18.647Z,31.46
2022-08-19T17:13:21.085Z,31.39
2022-08-19T17:15:22.699Z,31.67
2022-08-19T17:17:28.872Z,31.84
2022-08-19T17:19:31.022Z,32.03
2022-08-19T17:21:35.243Z,31.86
2022-08-19T17:23:42.853Z,32.01
2022-08-19T17:25:45.448Z,32.09
2022-08-19T17:27:47.025Z,32.83
2022-08-19T17:29:48.599Z,32.27
2022-08-19T17:31:50.173Z,32.22
2022-08-19T17:33:55.050Z,32.33
2022-08-19T17:35:56.784Z,32.14
2022-08-19T17:38:02.940Z,32.40
2022-08-19T17:40:07.807Z,32.40
2022-08-19T17:42:09.460Z,31.48
2022-08-19T17:44:11.180Z,32.59
2022-08-19T17:46:18.337Z,32.34
2022-08-19T17:48:20.270Z,32.40
2022-08-19T17:50:23.360Z,32.52
2022-08-19T17:52:26.283Z,32.29
2022-08-19T17:54:28.268Z,32.41
2022-08-19T17:56:35.569Z,32.18
2022-08-19T17:58:39.516Z,32.59
2022-08-19T18:00:53.862Z,32.67
2022-08-19T18:02:57.917Z,32.50
2022-08-19T18:04:59.660Z,32.40
2022-08-19T18:07:02.792Z,32.44
2022-08-19T18:09:05.512Z,32.42
2022-08-19T18:11:08.366Z,32.64
2022-08-19T18:13:17.572Z,32.71
2022-08-19T18:15:20.622Z,32.59
2022-08-19T18:17:22.523Z,32.63
2022-08-19T18:19:26.916Z,32.73
2022-08-19T18:21:43.556Z,32.53
2022-08-19T18:23:46.596Z,32.49
2022-08-19T18:25:48.264Z,32.40
2022-08-19T18:27:50.580Z,32.57
2022-08-19T18:29:53.799Z,32.72
2022-08-19T18:31:55.865Z,32.71
2022-08-19T18:33:58.034Z,32.54
2022-08-19T18:35:59.827Z,32.60
2022-08-19T18:38:02.964Z,32.66
2022-08-19T18:40:08.798Z,32.68
2022-08-19T18:42:14.097Z,32.83
2022-08-19T18:44:15.778Z,32.79
2022-08-19T18:46:17.515Z,33.02
2022-08-19T18:48:28.025Z,32.78
2022-08-19T18:50:29.975Z,32.75
2022-08-19T18:52:34.675Z,32.92
2022-08-19T18:54:36.849Z,32.57
2022-08-19T18:56:40.043Z,32.92
2022-08-19T18:58:45.836Z,32.75
2022-08-19T19:00:47.737Z,33.05
2022-08-19T19:02:49.370Z,32.93
2022-08-19T19:04:51.497Z,33.06
2022-08-19T19:06:53.935Z,33.06
2022-08-19T19:08:56.226Z,32.48
2022-08-19T19:11:01.853Z,32.97
2022-08-19T19:13:04.995Z,33.17
2022-08-19T19:15:08.123Z,33.15
2022-08-19T19:17:14.517Z,33.19
2022-08-19T19:19:16.604Z,33.14
2022-08-19T19:21:22.857Z,31.91
2022-08-19T19:23:24.814Z,33.04
2022-08-19T19:25:26.648Z,33.46
2022-08-19T19:27:48.473Z,33.06
2022-08-19T19:29:52.626Z,32.98
2022-08-19T19:31:54.481Z,33.19
2022-08-19T19:33:57.833Z,33.06
2022-08-19T19:36:04.971Z,33.31
2022-08-19T19:38:06.786Z,33.30
2022-08-19T19:40:09.181Z,33.03
2022-08-19T19:42:19.713Z,32.82
2022-08-19T19:44:31.083Z,33.32
2022-08-19T19:46:36.408Z,33.24
2022-08-19T19:48:39.148Z,33.39
2022-08-19T19:50:41.673Z,33.14
2022-08-19T19:52:45.007Z,33.31
2022-08-19T19:54:47.976Z,33.17
2022-08-19T19:56:49.860Z,33.36
2022-08-19T19:58:52.078Z,33.33
2022-08-19T20:00:53.811Z,33.13
2022-08-19T20:02:57.085Z,33.28
2022-08-19T20:04:58.696Z,33.40
2022-08-19T20:07:00.390Z,32.22
2022-08-19T20:09:02.006Z,33.04
2022-08-19T20:11:05.765Z,32.59
2022-08-19T20:13:12.359Z,32.70
2022-08-19T20:15:16.944Z,33.21
2022-08-19T20:17:18.653Z,33.68
2022-08-19T20:19:24.456Z,33.60
2022-08-19T20:21:28.708Z,33.54
2022-08-19T20:23:30.346Z,33.80
2022-08-19T20:25:32.173Z,33.70
2022-08-19T20:27:37.152Z,33.73
2022-08-19T20:29:44.524Z,33.69
2022-08-19T20:31:57.341Z,33.47
2022-08-19T20:34:01.017Z,33.76
2022-08-19T20:36:04.497Z,34.14
2022-08-19T20:38:06.132Z,34.03
2022-08-19T20:40:09.533Z,33.88
2022-08-19T20:42:11.184Z,34.13
2022-08-19T20:44:12.813Z,33.97
2022-08-19T20:46:14.605Z,34.09
2022-08-19T20:48:16.456Z,34.09
2022-08-19T20:50:18.326Z,34.03
2022-08-19T20:52:21.360Z,34.02
2022-08-19T20:54:24.038Z,34.16
2022-08-19T20:56:26.238Z,34.26
2022-08-19T20:58:28.131Z,34.27
2022-08-19T21:00:29.904Z,34.08
2022-08-19T21:02:31.565Z,34.54
2022-08-19T21:04:33.230Z,34.54
2022-08-19T21:06:34.827Z,34.14
2022-08-19T21:08:39.017Z,34.52
2022-08-19T21:10:42.444Z,34.02
2022-08-19T21:12:44.208Z,34.13
2022-08-19T21:14:46.380Z,33.96
2022-08-19T21:16:48.122Z,34.14
2022-08-19T21:18:49.690Z,33.95
2022-08-19T21:20:51.653Z,33.24
2022-08-19T21:22:53.363Z,34.05
2022-08-19T21:24:56.336Z,33.67
2022-08-19T21:26:58.140Z,33.54
2022-08-19T21:29:00.059Z,32.52
2022-08-19T21:31:01.850Z,32.61
2022-08-19T21:33:05.061Z,33.02
2022-08-19T21:35:07.225Z,33.04
2022-08-19T21:37:11.641Z,32.60
2022-08-19T21:39:21.654Z,32.99
2022-08-19T21:41:24.581Z,33.43
2022-08-19T21:43:26.262Z,34.12
2022-08-19T21:45:28.222Z,33.69
2022-08-19T21:47:30.112Z,32.94
2022-08-19T21:49:31.749Z,33.36
2022-08-19T21:51:35.712Z,33.31
2022-08-19T21:53:37.365Z,34.94
2022-08-19T21:55:39.852Z,34.34
2022-08-19T21:57:43.004Z,34.54
2022-08-19T21:59:44.642Z,34.13
2022-08-19T22:01:50.447Z,34.18
2022-08-19T22:03:53.660Z,34.19
2022-08-19T22:05:55.603Z,34.03
2022-08-19T22:07:58.232Z,34.32
2022-08-19T22:10:01.433Z,34.41
2022-08-19T22:12:04.019Z,34.15
2022-08-19T22:14:07.001Z,34.05
2022-08-19T22:16:10.162Z,34.05
2022-08-19T22:18:11.824Z,34.36
2022-08-19T22:20:18.268Z,34.59
2022-08-19T22:22:21.721Z,35.01
2022-08-19T22:24:24.083Z,34.49
2022-08-19T22:26:25.635Z,34.82
2022-08-19T22:28:27.588Z,34.77
2022-08-19T22:30:33.269Z,34.39
2022-08-19T22:32:35.548Z,34.47
2022-08-19T22:34:37.166Z,35.47
2022-08-19T22:36:38.825Z,35.21
2022-08-19T22:38:40.571Z,35.30
2022-08-19T22:40:45.069Z,34.93
2022-08-19T22:42:46.752Z,34.36
2022-08-19T22:44:48.795Z,34.99
2022-08-19T22:46:51.796Z,35.26
2022-08-19T22:49:01.167Z,35.48
2022-08-19T22:51:03.419Z,36.17
2022-08-19T22:53:06.002Z,35.97
2022-08-19T22:55:08.216Z,35.49
2022-08-19T22:57:09.907Z,35.20
2022-08-19T22:59:11.886Z,35.71
2022-08-19T23:01:27.410Z,35.99
2022-08-19T23:03:33.740Z,35.96
2022-08-19T23:05:35.499Z,36.37
2022-08-19T23:07:40.448Z,36.03
2022-08-19T23:09:47.539Z,36.31
2022-08-19T23:11:49.409Z,35.49
2022-08-19T23:13:51.022Z,36.03
2022-08-19T23:15:52.604Z,36.58
2022-08-19T23:17:57.163Z,36.72
2022-08-19T23:20:00.224Z,36.76
2022-08-19T23:22:02.026Z,36.36
2022-08-19T23:24:04.736Z,36.36
2022-08-19T23:26:06.599Z,36.58
2022-08-19T23:28:14.186Z,36.46
2022-08-19T23:30:15.894Z,36.06
2022-08-19T23:32:18.064Z,37.03
2022-08-19T23:34:19.648Z,37.35
2022-08-19T23:36:22.896Z,37.34
2022-08-19T23:38:29.756Z,36.61
2022-08-19T23:40:31.495Z,37.31
2022-08-19T23:42:35.243Z,37.75
2022-08-19T23:44:37.270Z,36.97
2022-08-19T23:46:55.044Z,37.01
2022-08-19T23:48:58.069Z,37.11
2022-08-19T23:51:00.921Z,37.24
2022-08-19T23:53:04.291Z,37.05
2022-08-19T23:55:06.656Z,37.63
2022-08-19T23:57:13.499Z,36.90
2022-08-19T23:59:16.187Z,37.11
